sensor_id;sensor_type;location;lat;lon;timestamp;P1;durP1;ratioP1;P2;durP2;ratioP2
16171;SDS011;8192;53.596;10.166;2022-07-01T00:01:29;14.37;;;10.43;;
16171;SDS011;8192;53.596;10.166;2022-07-01T00:06:59;15.57;;;9.97;;
16171;SDS011;8192;53.596;10.166;2022-07-01T00:09:27;14.53;;;9.93;;
16171;SDS011;8192;53.596;10.166;2022-07-01T00:11:54;13.53;;;9.93;;
16171;SDS011;8192;53.596;10.166;2022-07-01T00:14:23;11.03;;;9.00;;
16171;SDS011;8192;53.596;10.166;2022-07-01T00:16:53;13.10;;;7.37;;
16171;SDS011;8192;53.596;10.166;2022-07-01T00:19:25;9.07;;;6.77;;
16171;SDS011;8192;53.596;10.166;2022-07-01T00:21:53;8.65;;;7.00;;
16171;SDS011;8192;53.596;10.166;2022-07-01T00:24:22;9.40;;;6.30;;
16171;SDS011;8192;53.596;10.166;2022-07-01T00:26:49;10.23;;;6.47;;
16171;SDS011;8192;53.596;10.166;2022-07-01T00:29:17;6.43;;;4.33;;
16171;SDS011;8192;53.596;10.166;2022-07-01T00:31:44;5.90;;;3.47;;
16171;SDS011;8192;53.596;10.166;2022-07-01T00:34:12;5.23;;;3.10;;
16171;SDS011;8192;53.596;10.166;2022-07-01T00:36:39;5.77;;;3.40;;
16171;SDS011;8192;53.596;10.166;2022-07-01T00:39:06;3.70;;;2.77;;
16171;SDS011;8192;53.596;10.166;2022-07-01T00:41:36;5.10;;;3.07;;
16171;SDS011;8192;53.596;10.166;2022-07-01T00:44:03;3.53;;;2.90;;
16171;SDS011;8192;53.596;10.166;2022-07-01T00:46:31;3.63;;;3.03;;
16171;SDS011;8192;53.596;10.166;2022-07-01T00:48:59;3.90;;;3.20;;
16171;SDS011;8192;53.596;10.166;2022-07-01T00:51:29;5.60;;;2.90;;
16171;SDS011;8192;53.596;10.166;2022-07-01T00:53:59;4.50;;;3.17;;
16171;SDS011;8192;53.596;10.166;2022-07-01T00:56:27;5.53;;;3.40;;
16171;SDS011;8192;53.596;10.166;2022-07-01T00:58:56;8.27;;;4.37;;
16171;SDS011;8192;53.596;10.166;2022-07-01T01:01:27;9.30;;;4.67;;
16171;SDS011;8192;53.596;10.166;2022-07-01T01:03:54;13.73;;;5.03;;
16171;SDS011;8192;53.596;10.166;2022-07-01T01:06:22;11.33;;;5.50;;
16171;SDS011;8192;53.596;10.166;2022-07-01T01:08:49;13.37;;;5.57;;
16171;SDS011;8192;53.596;10.166;2022-07-01T01:11:17;20.53;;;7.07;;
16171;SDS011;8192;53.596;10.166;2022-07-01T01:13:45;0.40;;;0.30;;
16171;SDS011;8192;53.596;10.166;2022-07-01T01:16:17;2.60;;;0.80;;
16171;SDS011;8192;53.596;10.166;2022-07-01T01:18:45;0.25;;;0.25;;
16171;SDS011;8192;53.596;10.166;2022-07-01T01:21:13;1.80;;;0.50;;
16171;SDS011;8192;53.596;10.166;2022-07-01T01:23:41;1.20;;;0.75;;
16171;SDS011;8192;53.596;10.166;2022-07-01T01:26:14;0.20;;;0.20;;
16171;SDS011;8192;53.596;10.166;2022-07-01T01:28:42;0.53;;;0.30;;
16171;SDS011;8192;53.596;10.166;2022-07-01T01:31:09;3.50;;;0.53;;
16171;SDS011;8192;53.596;10.166;2022-07-01T01:33:37;1.13;;;0.63;;
16171;SDS011;8192;53.596;10.166;2022-07-01T01:36:04;5.00;;;1.00;;
16171;SDS011;8192;53.596;10.166;2022-07-01T01:38:33;0.55;;;0.55;;
16171;SDS011;8192;53.596;10.166;2022-07-01T01:41:01;2.10;;;0.80;;
16171;SDS011;8192;53.596;10.166;2022-07-01T01:43:28;0.13;;;0.13;;
16171;SDS011;8192;53.596;10.166;2022-07-01T01:45:59;0.03;;;0.03;;
16171;SDS011;8192;53.596;10.166;2022-07-01T01:48:28;2.40;;;0.73;;
16171;SDS011;8192;53.596;10.166;2022-07-01T01:50:55;0.83;;;0.67;;
16171;SDS011;8192;53.596;10.166;2022-07-01T01:53:23;0.17;;;0.10;;
16171;SDS011;8192;53.596;10.166;2022-07-01T01:55:51;4.27;;;1.30;;
16171;SDS011;8192;53.596;10.166;2022-07-01T01:58:18;0.55;;;0.40;;
16171;SDS011;8192;53.596;10.166;2022-07-01T02:00:45;0.57;;;0.30;;
16171;SDS011;8192;53.596;10.166;2022-07-01T02:03:12;1.33;;;0.90;;
16171;SDS011;8192;53.596;10.166;2022-07-01T02:05:39;1.83;;;1.43;;
16171;SDS011;8192;53.596;10.166;2022-07-01T02:08:06;0.20;;;0.20;;
16171;SDS011;8192;53.596;10.166;2022-07-01T02:20:26;1.97;;;1.17;;
16171;SDS011;8192;53.596;10.166;2022-07-01T02:22:52;0.65;;;0.50;;
16171;SDS011;8192;53.596;10.166;2022-07-01T02:25:19;1.80;;;1.03;;
16171;SDS011;8192;53.596;10.166;2022-07-01T02:27:47;0.60;;;0.60;;
16171;SDS011;8192;53.596;10.166;2022-07-01T02:30:15;1.07;;;0.67;;
16171;SDS011;8192;53.596;10.166;2022-07-01T02:32:42;0.67;;;0.60;;
16171;SDS011;8192;53.596;10.166;2022-07-01T02:35:10;4.67;;;0.40;;
16171;SDS011;8192;53.596;10.166;2022-07-01T02:37:38;0.67;;;0.63;;
16171;SDS011;8192;53.596;10.166;2022-07-01T02:40:06;0.30;;;0.30;;
16171;SDS011;8192;53.596;10.166;2022-07-01T02:42:34;0.67;;;0.53;;
16171;SDS011;8192;53.596;10.166;2022-07-01T02:45:02;0.60;;;0.60;;
16171;SDS011;8192;53.596;10.166;2022-07-01T02:47:31;1.30;;;0.93;;
16171;SDS011;8192;53.596;10.166;2022-07-01T02:49:59;0.57;;;0.50;;
16171;SDS011;8192;53.596;10.166;2022-07-01T02:52:26;1.63;;;1.07;;
16171;SDS011;8192;53.596;10.166;2022-07-01T02:54:53;0.53;;;0.53;;
16171;SDS011;8192;53.596;10.166;2022-07-01T02:57:21;0.83;;;0.67;;
16171;SDS011;8192;53.596;10.166;2022-07-01T02:59:48;1.40;;;0.97;;
16171;SDS011;8192;53.596;10.166;2022-07-01T03:02:16;2.23;;;1.17;;
16171;SDS011;8192;53.596;10.166;2022-07-01T03:04:45;0.53;;;0.40;;
16171;SDS011;8192;53.596;10.166;2022-07-01T03:07:13;2.00;;;1.20;;
16171;SDS011;8192;53.596;10.166;2022-07-01T03:09:40;0.50;;;0.47;;
16171;SDS011;8192;53.596;10.166;2022-07-01T03:12:08;0.37;;;0.37;;
16171;SDS011;8192;53.596;10.166;2022-07-01T03:14:52;0.20;;;0.10;;
16171;SDS011;8192;53.596;10.166;2022-07-01T03:17:20;0.97;;;0.50;;
16171;SDS011;8192;53.596;10.166;2022-07-01T03:19:49;5.40;;;1.47;;
16171;SDS011;8192;53.596;10.166;2022-07-01T03:22:18;0.70;;;0.70;;
16171;SDS011;8192;53.596;10.166;2022-07-01T03:24:46;0.30;;;0.30;;
16171;SDS011;8192;53.596;10.166;2022-07-01T03:27:13;1.40;;;1.00;;
16171;SDS011;8192;53.596;10.166;2022-07-01T03:29:41;0.67;;;0.67;;
16171;SDS011;8192;53.596;10.166;2022-07-01T03:32:08;1.63;;;0.63;;
16171;SDS011;8192;53.596;10.166;2022-07-01T03:34:35;1.00;;;0.43;;
16171;SDS011;8192;53.596;10.166;2022-07-01T03:37:04;1.10;;;0.80;;
16171;SDS011;8192;53.596;10.166;2022-07-01T03:39:33;0.50;;;0.50;;
16171;SDS011;8192;53.596;10.166;2022-07-01T03:42:02;1.17;;;0.73;;
16171;SDS011;8192;53.596;10.166;2022-07-01T03:44:30;1.20;;;0.70;;
16171;SDS011;8192;53.596;10.166;2022-07-01T03:46:57;2.27;;;1.30;;
16171;SDS011;8192;53.596;10.166;2022-07-01T03:49:24;0.47;;;0.47;;
16171;SDS011;8192;53.596;10.166;2022-07-01T03:51:52;1.53;;;1.43;;
16171;SDS011;8192;53.596;10.166;2022-07-01T03:54:21;0.83;;;0.83;;
16171;SDS011;8192;53.596;10.166;2022-07-01T03:56:56;2.67;;;1.20;;
16171;SDS011;8192;53.596;10.166;2022-07-01T03:59:23;1.47;;;0.97;;
16171;SDS011;8192;53.596;10.166;2022-07-01T04:01:51;2.30;;;1.50;;
16171;SDS011;8192;53.596;10.166;2022-07-01T04:04:18;3.23;;;2.37;;
16171;SDS011;8192;53.596;10.166;2022-07-01T04:06:48;2.37;;;1.50;;
16171;SDS011;8192;53.596;10.166;2022-07-01T04:09:16;2.13;;;1.43;;
16171;SDS011;8192;53.596;10.166;2022-07-01T04:11:46;1.67;;;1.57;;
16171;SDS011;8192;53.596;10.166;2022-07-01T04:14:14;4.10;;;1.80;;
16171;SDS011;8192;53.596;10.166;2022-07-01T04:16:42;2.87;;;1.07;;
16171;SDS011;8192;53.596;10.166;2022-07-01T04:19:10;1.17;;;1.07;;
16171;SDS011;8192;53.596;10.166;2022-07-01T04:21:37;3.40;;;1.07;;
16171;SDS011;8192;53.596;10.166;2022-07-01T04:24:22;1.60;;;1.33;;
16171;SDS011;8192;53.596;10.166;2022-07-01T04:26:51;2.70;;;0.70;;
16171;SDS011;8192;53.596;10.166;2022-07-01T04:29:18;1.47;;;1.37;;
16171;SDS011;8192;53.596;10.166;2022-07-01T04:31:46;1.93;;;1.70;;
16171;SDS011;8192;53.596;10.166;2022-07-01T04:34:13;1.17;;;1.10;;
16171;SDS011;8192;53.596;10.166;2022-07-01T04:36:40;1.00;;;0.97;;
16171;SDS011;8192;53.596;10.166;2022-07-01T04:39:07;0.97;;;0.87;;
16171;SDS011;8192;53.596;10.166;2022-07-01T04:41:34;1.50;;;1.40;;
16171;SDS011;8192;53.596;10.166;2022-07-01T04:44:20;0.77;;;0.73;;
16171;SDS011;8192;53.596;10.166;2022-07-01T04:46:47;0.53;;;0.50;;
16171;SDS011;8192;53.596;10.166;2022-07-01T04:49:14;0.43;;;0.43;;
16171;SDS011;8192;53.596;10.166;2022-07-01T04:51:41;0.43;;;0.43;;
16171;SDS011;8192;53.596;10.166;2022-07-01T04:54:08;0.97;;;0.67;;
16171;SDS011;8192;53.596;10.166;2022-07-01T04:56:36;0.67;;;0.67;;
16171;SDS011;8192;53.596;10.166;2022-07-01T04:59:03;0.57;;;0.53;;
16171;SDS011;8192;53.596;10.166;2022-07-01T05:01:32;1.33;;;0.83;;
16171;SDS011;8192;53.596;10.166;2022-07-01T05:04:00;1.63;;;0.83;;
16171;SDS011;8192;53.596;10.166;2022-07-01T05:06:27;0.97;;;0.70;;
16171;SDS011;8192;53.596;10.166;2022-07-01T05:08:54;1.07;;;0.87;;
16171;SDS011;8192;53.596;10.166;2022-07-01T05:11:21;0.67;;;0.67;;
16171;SDS011;8192;53.596;10.166;2022-07-01T05:13:48;0.17;;;0.17;;
16171;SDS011;8192;53.596;10.166;2022-07-01T05:16:15;0.53;;;0.43;;
16171;SDS011;8192;53.596;10.166;2022-07-01T05:18:46;1.10;;;0.77;;
16171;SDS011;8192;53.596;10.166;2022-07-01T05:21:30;0.80;;;0.50;;
16171;SDS011;8192;53.596;10.166;2022-07-01T05:24:15;0.20;;;0.20;;
16171;SDS011;8192;53.596;10.166;2022-07-01T05:26:42;2.40;;;0.80;;
16171;SDS011;8192;53.596;10.166;2022-07-01T05:29:10;0.63;;;0.63;;
16171;SDS011;8192;53.596;10.166;2022-07-01T05:31:37;1.30;;;0.90;;
16171;SDS011;8192;53.596;10.166;2022-07-01T05:34:06;0.13;;;0.13;;
16171;SDS011;8192;53.596;10.166;2022-07-01T05:36:33;1.67;;;1.20;;
16171;SDS011;8192;53.596;10.166;2022-07-01T05:39:00;1.60;;;0.53;;
16171;SDS011;8192;53.596;10.166;2022-07-01T05:41:28;0.90;;;0.90;;
16171;SDS011;8192;53.596;10.166;2022-07-01T05:43:55;0.73;;;0.73;;
16171;SDS011;8192;53.596;10.166;2022-07-01T05:46:22;1.30;;;1.07;;
16171;SDS011;8192;53.596;10.166;2022-07-01T05:48:48;0.40;;;0.20;;
16171;SDS011;8192;53.596;10.166;2022-07-01T05:51:17;1.30;;;0.57;;
16171;SDS011;8192;53.596;10.166;2022-07-01T05:53:44;0.20;;;0.20;;
16171;SDS011;8192;53.596;10.166;2022-07-01T05:56:12;0.60;;;0.30;;
16171;SDS011;8192;53.596;10.166;2022-07-01T05:58:40;0.00;;;0.00;;
16171;SDS011;8192;53.596;10.166;2022-07-01T06:01:07;0.30;;;0.30;;
16171;SDS011;8192;53.596;10.166;2022-07-01T06:03:36;0.33;;;0.33;;
16171;SDS011;8192;53.596;10.166;2022-07-01T06:06:03;0.10;;;0.10;;
16171;SDS011;8192;53.596;10.166;2022-07-01T06:08:32;0.10;;;0.10;;
16171;SDS011;8192;53.596;10.166;2022-07-01T06:10:59;0.10;;;0.10;;
16171;SDS011;8192;53.596;10.166;2022-07-01T06:13:27;8.80;;;1.17;;
16171;SDS011;8192;53.596;10.166;2022-07-01T06:15:56;0.00;;;0.00;;
16171;SDS011;8192;53.596;10.166;2022-07-01T06:18:24;0.10;;;0.10;;
16171;SDS011;8192;53.596;10.166;2022-07-01T06:20:52;0.00;;;0.00;;
16171;SDS011;8192;53.596;10.166;2022-07-01T06:23:19;0.03;;;0.03;;
16171;SDS011;8192;53.596;10.166;2022-07-01T06:25:47;0.50;;;0.40;;
16171;SDS011;8192;53.596;10.166;2022-07-01T06:28:15;0.20;;;0.20;;
16171;SDS011;8192;53.596;10.166;2022-07-01T06:30:42;0.57;;;0.33;;
16171;SDS011;8192;53.596;10.166;2022-07-01T06:33:11;1.07;;;0.50;;
16171;SDS011;8192;53.596;10.166;2022-07-01T06:35:38;0.80;;;0.40;;
16171;SDS011;8192;53.596;10.166;2022-07-01T06:38:05;1.80;;;1.03;;
16171;SDS011;8192;53.596;10.166;2022-07-01T06:40:33;0.03;;;0.03;;
16171;SDS011;8192;53.596;10.166;2022-07-01T06:43:01;0.07;;;0.07;;
16171;SDS011;8192;53.596;10.166;2022-07-01T06:45:28;0.53;;;0.50;;
16171;SDS011;8192;53.596;10.166;2022-07-01T06:47:55;0.10;;;0.10;;
16171;SDS011;8192;53.596;10.166;2022-07-01T06:50:22;0.10;;;0.10;;
16171;SDS011;8192;53.596;10.166;2022-07-01T06:52:49;0.47;;;0.37;;
16171;SDS011;8192;53.596;10.166;2022-07-01T06:55:16;0.20;;;0.20;;
16171;SDS011;8192;53.596;10.166;2022-07-01T06:57:44;0.07;;;0.07;;
16171;SDS011;8192;53.596;10.166;2022-07-01T07:00:13;0.10;;;0.10;;
16171;SDS011;8192;53.596;10.166;2022-07-01T07:02:40;0.00;;;0.00;;
16171;SDS011;8192;53.596;10.166;2022-07-01T07:05:08;0.17;;;0.03;;
16171;SDS011;8192;53.596;10.166;2022-07-01T07:07:35;5.10;;;1.90;;
16171;SDS011;8192;53.596;10.166;2022-07-01T07:10:02;0.40;;;0.40;;
16171;SDS011;8192;53.596;10.166;2022-07-01T07:12:30;0.00;;;0.00;;
16171;SDS011;8192;53.596;10.166;2022-07-01T07:14:57;0.10;;;0.10;;
16171;SDS011;8192;53.596;10.166;2022-07-01T07:17:32;0.00;;;0.00;;
16171;SDS011;8192;53.596;10.166;2022-07-01T07:19:59;0.00;;;0.00;;
16171;SDS011;8192;53.596;10.166;2022-07-01T07:22:26;0.73;;;0.67;;
16171;SDS011;8192;53.596;10.166;2022-07-01T07:24:53;0.20;;;0.20;;
16171;SDS011;8192;53.596;10.166;2022-07-01T07:29:50;0.23;;;0.23;;
16171;SDS011;8192;53.596;10.166;2022-07-01T07:32:20;1.33;;;0.63;;
16171;SDS011;8192;53.596;10.166;2022-07-01T07:34:48;1.50;;;0.60;;
16171;SDS011;8192;53.596;10.166;2022-07-01T07:37:15;0.00;;;0.00;;
16171;SDS011;8192;53.596;10.166;2022-07-01T07:39:42;0.10;;;0.10;;
16171;SDS011;8192;53.596;10.166;2022-07-01T07:42:09;0.00;;;0.00;;
16171;SDS011;8192;53.596;10.166;2022-07-01T07:44:36;0.20;;;0.10;;
16171;SDS011;8192;53.596;10.166;2022-07-01T07:47:03;0.13;;;0.10;;
16171;SDS011;8192;53.596;10.166;2022-07-01T07:49:30;0.07;;;0.07;;
16171;SDS011;8192;53.596;10.166;2022-07-01T07:52:00;0.07;;;0.07;;
16171;SDS011;8192;53.596;10.166;2022-07-01T07:54:27;1.17;;;0.20;;
16171;SDS011;8192;53.596;10.166;2022-07-01T07:56:54;0.10;;;0.10;;
16171;SDS011;8192;53.596;10.166;2022-07-01T07:59:21;0.97;;;0.63;;
16171;SDS011;8192;53.596;10.166;2022-07-01T08:01:48;0.00;;;0.00;;
16171;SDS011;8192;53.596;10.166;2022-07-01T08:04:15;0.27;;;0.27;;
16171;SDS011;8192;53.596;10.166;2022-07-01T08:06:42;0.10;;;0.10;;
16171;SDS011;8192;53.596;10.166;2022-07-01T08:09:11;0.10;;;0.10;;
16171;SDS011;8192;53.596;10.166;2022-07-01T08:11:38;0.33;;;0.20;;
16171;SDS011;8192;53.596;10.166;2022-07-01T08:14:04;0.07;;;0.07;;
16171;SDS011;8192;53.596;10.166;2022-07-01T08:16:32;0.73;;;0.57;;
16171;SDS011;8192;53.596;10.166;2022-07-01T08:18:59;7.93;;;0.60;;
16171;SDS011;8192;53.596;10.166;2022-07-01T08:21:27;0.10;;;0.10;;
16171;SDS011;8192;53.596;10.166;2022-07-01T08:23:54;0.20;;;0.20;;
16171;SDS011;8192;53.596;10.166;2022-07-01T08:26:23;3.47;;;1.40;;
16171;SDS011;8192;53.596;10.166;2022-07-01T08:28:50;0.13;;;0.10;;
16171;SDS011;8192;53.596;10.166;2022-07-01T08:31:17;0.00;;;0.00;;
16171;SDS011;8192;53.596;10.166;2022-07-01T08:33:44;0.53;;;0.53;;
16171;SDS011;8192;53.596;10.166;2022-07-01T08:36:10;0.20;;;0.20;;
16171;SDS011;8192;53.596;10.166;2022-07-01T08:38:41;0.40;;;0.23;;
16171;SDS011;8192;53.596;10.166;2022-07-01T08:41:07;0.40;;;0.37;;
16171;SDS011;8192;53.596;10.166;2022-07-01T08:43:36;0.60;;;0.30;;
16171;SDS011;8192;53.596;10.166;2022-07-01T08:46:03;0.20;;;0.20;;
16171;SDS011;8192;53.596;10.166;2022-07-01T08:48:30;0.20;;;0.20;;
16171;SDS011;8192;53.596;10.166;2022-07-01T08:50:57;0.17;;;0.17;;
16171;SDS011;8192;53.596;10.166;2022-07-01T08:53:24;0.07;;;0.07;;
16171;SDS011;8192;53.596;10.166;2022-07-01T08:55:51;1.80;;;0.20;;
16171;SDS011;8192;53.596;10.166;2022-07-01T08:58:37;0.13;;;0.07;;
16171;SDS011;8192;53.596;10.166;2022-07-01T09:01:13;0.20;;;0.20;;
16171;SDS011;8192;53.596;10.166;2022-07-01T09:03:50;0.50;;;0.50;;
16171;SDS011;8192;53.596;10.166;2022-07-01T09:06:19;0.20;;;0.20;;
16171;SDS011;8192;53.596;10.166;2022-07-01T09:08:47;0.23;;;0.23;;
16171;SDS011;8192;53.596;10.166;2022-07-01T09:11:15;0.30;;;0.30;;
16171;SDS011;8192;53.596;10.166;2022-07-01T09:13:45;0.50;;;0.40;;
16171;SDS011;8192;53.596;10.166;2022-07-01T09:16:31;0.00;;;0.00;;
16171;SDS011;8192;53.596;10.166;2022-07-01T09:19:06;0.10;;;0.10;;
16171;SDS011;8192;53.596;10.166;2022-07-01T09:21:33;0.23;;;0.23;;
16171;SDS011;8192;53.596;10.166;2022-07-01T09:24:02;0.10;;;0.10;;
16171;SDS011;8192;53.596;10.166;2022-07-01T09:26:33;0.10;;;0.10;;
16171;SDS011;8192;53.596;10.166;2022-07-01T09:29:02;0.27;;;0.20;;
16171;SDS011;8192;53.596;10.166;2022-07-01T09:31:30;0.83;;;0.40;;
16171;SDS011;8192;53.596;10.166;2022-07-01T09:34:03;0.00;;;0.00;;
16171;SDS011;8192;53.596;10.166;2022-07-01T09:36:32;0.13;;;0.13;;
16171;SDS011;8192;53.596;10.166;2022-07-01T09:39:04;0.10;;;0.10;;
16171;SDS011;8192;53.596;10.166;2022-07-01T09:41:35;0.73;;;0.57;;
16171;SDS011;8192;53.596;10.166;2022-07-01T09:44:07;0.20;;;0.20;;
16171;SDS011;8192;53.596;10.166;2022-07-01T09:46:35;0.40;;;0.40;;
16171;SDS011;8192;53.596;10.166;2022-07-01T09:49:03;0.20;;;0.20;;
16171;SDS011;8192;53.596;10.166;2022-07-01T09:51:30;2.73;;;1.20;;
16171;SDS011;8192;53.596;10.166;2022-07-01T09:53:57;25.37;;;1.07;;
16171;SDS011;8192;53.596;10.166;2022-07-01T09:56:24;0.37;;;0.37;;
16171;SDS011;8192;53.596;10.166;2022-07-01T09:58:50;0.00;;;0.00;;
16171;SDS011;8192;53.596;10.166;2022-07-01T10:01:19;0.07;;;0.07;;
16171;SDS011;8192;53.596;10.166;2022-07-01T10:03:48;0.30;;;0.23;;
16171;SDS011;8192;53.596;10.166;2022-07-01T10:06:31;0.40;;;0.40;;
16171;SDS011;8192;53.596;10.166;2022-07-01T10:09:12;0.20;;;0.20;;
16171;SDS011;8192;53.596;10.166;2022-07-01T10:12:18;0.20;;;0.20;;
16171;SDS011;8192;53.596;10.166;2022-07-01T10:14:59;0.30;;;0.30;;
16171;SDS011;8192;53.596;10.166;2022-07-01T10:17:29;0.23;;;0.23;;
16171;SDS011;8192;53.596;10.166;2022-07-01T10:20:05;1.63;;;1.20;;
16171;SDS011;8192;53.596;10.166;2022-07-01T10:22:35;0.00;;;0.00;;
16171;SDS011;8192;53.596;10.166;2022-07-01T10:31:00;1.07;;;0.53;;
16171;SDS011;8192;53.596;10.166;2022-07-01T10:33:41;0.40;;;0.40;;
16171;SDS011;8192;53.596;10.166;2022-07-01T10:36:13;0.37;;;0.37;;
16171;SDS011;8192;53.596;10.166;2022-07-01T10:41:36;0.37;;;0.30;;
16171;SDS011;8192;53.596;10.166;2022-07-01T10:44:05;0.77;;;0.77;;
16171;SDS011;8192;53.596;10.166;2022-07-01T10:46:40;0.00;;;0.00;;
16171;SDS011;8192;53.596;10.166;2022-07-01T10:49:10;0.40;;;0.40;;
16171;SDS011;8192;53.596;10.166;2022-07-01T10:51:46;0.40;;;0.30;;
16171;SDS011;8192;53.596;10.166;2022-07-01T10:57:26;2.63;;;1.10;;
16171;SDS011;8192;53.596;10.166;2022-07-01T11:03:04;0.00;;;0.00;;
16171;SDS011;8192;53.596;10.166;2022-07-01T11:05:33;0.10;;;0.10;;
16171;SDS011;8192;53.596;10.166;2022-07-01T11:10:42;4.60;;;0.73;;
16171;SDS011;8192;53.596;10.166;2022-07-01T11:13:13;0.87;;;0.63;;
16171;SDS011;8192;53.596;10.166;2022-07-01T11:15:42;0.50;;;0.50;;
16171;SDS011;8192;53.596;10.166;2022-07-01T11:18:12;0.10;;;0.10;;
16171;SDS011;8192;53.596;10.166;2022-07-01T11:20:42;0.10;;;0.10;;
16171;SDS011;8192;53.596;10.166;2022-07-01T11:23:09;0.20;;;0.20;;
16171;SDS011;8192;53.596;10.166;2022-07-01T11:25:36;0.43;;;0.43;;
16171;SDS011;8192;53.596;10.166;2022-07-01T11:28:04;1.80;;;0.77;;
16171;SDS011;8192;53.596;10.166;2022-07-01T11:30:31;1.53;;;0.83;;
16171;SDS011;8192;53.596;10.166;2022-07-01T11:32:58;0.50;;;0.50;;
16171;SDS011;8192;53.596;10.166;2022-07-01T11:35:26;0.67;;;0.53;;
16171;SDS011;8192;53.596;10.166;2022-07-01T11:38:13;0.40;;;0.40;;
16171;SDS011;8192;53.596;10.166;2022-07-01T11:41:00;0.13;;;0.13;;
16171;SDS011;8192;53.596;10.166;2022-07-01T11:43:29;0.43;;;0.43;;
16171;SDS011;8192;53.596;10.166;2022-07-01T11:45:59;0.27;;;0.20;;
16171;SDS011;8192;53.596;10.166;2022-07-01T11:48:30;2.87;;;0.97;;
16171;SDS011;8192;53.596;10.166;2022-07-01T11:51:00;0.37;;;0.37;;
16171;SDS011;8192;53.596;10.166;2022-07-01T11:53:32;1.23;;;1.17;;
16171;SDS011;8192;53.596;10.166;2022-07-01T11:55:59;0.20;;;0.20;;
16171;SDS011;8192;53.596;10.166;2022-07-01T11:58:39;1.57;;;0.77;;
16171;SDS011;8192;53.596;10.166;2022-07-01T12:01:10;0.40;;;0.40;;
16171;SDS011;8192;53.596;10.166;2022-07-01T12:03:37;2.87;;;0.50;;
16171;SDS011;8192;53.596;10.166;2022-07-01T12:06:04;1.07;;;1.00;;
16171;SDS011;8192;53.596;10.166;2022-07-01T12:08:33;3.43;;;1.30;;
16171;SDS011;8192;53.596;10.166;2022-07-01T12:11:08;0.33;;;0.33;;
16171;SDS011;8192;53.596;10.166;2022-07-01T12:13:35;2.57;;;0.90;;
16171;SDS011;8192;53.596;10.166;2022-07-01T12:16:06;2.10;;;1.33;;
16171;SDS011;8192;53.596;10.166;2022-07-01T12:18:34;1.63;;;0.87;;
16171;SDS011;8192;53.596;10.166;2022-07-01T12:21:02;0.47;;;0.47;;
16171;SDS011;8192;53.596;10.166;2022-07-01T12:23:30;0.43;;;0.43;;
16171;SDS011;8192;53.596;10.166;2022-07-01T12:26:00;1.27;;;1.17;;
16171;SDS011;8192;53.596;10.166;2022-07-01T12:28:31;3.70;;;1.30;;
16171;SDS011;8192;53.596;10.166;2022-07-01T12:30:59;0.23;;;0.23;;
16171;SDS011;8192;53.596;10.166;2022-07-01T12:33:28;0.63;;;0.50;;
16171;SDS011;8192;53.596;10.166;2022-07-01T12:36:00;0.57;;;0.57;;
16171;SDS011;8192;53.596;10.166;2022-07-01T12:38:28;2.43;;;0.77;;
16171;SDS011;8192;53.596;10.166;2022-07-01T12:40:55;0.03;;;0.03;;
16171;SDS011;8192;53.596;10.166;2022-07-01T12:43:27;0.17;;;0.17;;
16171;SDS011;8192;53.596;10.166;2022-07-01T12:45:57;2.60;;;1.27;;
16171;SDS011;8192;53.596;10.166;2022-07-01T12:48:25;0.10;;;0.10;;
16171;SDS011;8192;53.596;10.166;2022-07-01T12:50:53;3.40;;;0.97;;
16171;SDS011;8192;53.596;10.166;2022-07-01T12:53:22;0.90;;;0.90;;
16171;SDS011;8192;53.596;10.166;2022-07-01T12:55:50;0.53;;;0.53;;
16171;SDS011;8192;53.596;10.166;2022-07-01T12:58:19;1.30;;;1.17;;
16171;SDS011;8192;53.596;10.166;2022-07-01T13:00:49;0.70;;;0.40;;
16171;SDS011;8192;53.596;10.166;2022-07-01T13:03:18;0.53;;;0.43;;
16171;SDS011;8192;53.596;10.166;2022-07-01T13:05:47;0.83;;;0.80;;
16171;SDS011;8192;53.596;10.166;2022-07-01T13:08:15;0.20;;;0.20;;
16171;SDS011;8192;53.596;10.166;2022-07-01T13:10:43;0.53;;;0.53;;
16171;SDS011;8192;53.596;10.166;2022-07-01T13:13:11;0.47;;;0.40;;
16171;SDS011;8192;53.596;10.166;2022-07-01T13:15:38;0.37;;;0.37;;
16171;SDS011;8192;53.596;10.166;2022-07-01T13:18:07;0.17;;;0.17;;
16171;SDS011;8192;53.596;10.166;2022-07-01T13:20:34;0.30;;;0.30;;
16171;SDS011;8192;53.596;10.166;2022-07-01T13:23:03;0.83;;;0.70;;
16171;SDS011;8192;53.596;10.166;2022-07-01T13:25:30;0.83;;;0.40;;
16171;SDS011;8192;53.596;10.166;2022-07-01T13:27:57;0.80;;;0.47;;
16171;SDS011;8192;53.596;10.166;2022-07-01T13:30:24;0.00;;;0.00;;
16171;SDS011;8192;53.596;10.166;2022-07-01T13:32:51;0.60;;;0.50;;
16171;SDS011;8192;53.596;10.166;2022-07-01T13:35:21;0.57;;;0.47;;
16171;SDS011;8192;53.596;10.166;2022-07-01T13:37:49;0.53;;;0.40;;
16171;SDS011;8192;53.596;10.166;2022-07-01T13:40:17;0.83;;;0.50;;
16171;SDS011;8192;53.596;10.166;2022-07-01T13:42:45;0.60;;;0.60;;
16171;SDS011;8192;53.596;10.166;2022-07-01T13:45:12;0.20;;;0.20;;
16171;SDS011;8192;53.596;10.166;2022-07-01T13:47:39;0.37;;;0.37;;
16171;SDS011;8192;53.596;10.166;2022-07-01T13:50:07;0.40;;;0.40;;
16171;SDS011;8192;53.596;10.166;2022-07-01T13:52:36;0.30;;;0.30;;
16171;SDS011;8192;53.596;10.166;2022-07-01T13:55:04;0.40;;;0.40;;
16171;SDS011;8192;53.596;10.166;2022-07-01T13:57:31;0.60;;;0.53;;
16171;SDS011;8192;53.596;10.166;2022-07-01T13:59:58;1.43;;;0.77;;
16171;SDS011;8192;53.596;10.166;2022-07-01T14:02:26;0.40;;;0.40;;
16171;SDS011;8192;53.596;10.166;2022-07-01T14:04:53;0.40;;;0.33;;
16171;SDS011;8192;53.596;10.166;2022-07-01T14:07:20;0.37;;;0.37;;
16171;SDS011;8192;53.596;10.166;2022-07-01T14:09:48;0.30;;;0.30;;
16171;SDS011;8192;53.596;10.166;2022-07-01T14:12:15;0.87;;;0.80;;
16171;SDS011;8192;53.596;10.166;2022-07-01T14:14:42;0.60;;;0.50;;
16171;SDS011;8192;53.596;10.166;2022-07-01T14:17:09;0.50;;;0.50;;
16171;SDS011;8192;53.596;10.166;2022-07-01T14:19:37;0.47;;;0.40;;
16171;SDS011;8192;53.596;10.166;2022-07-01T14:22:04;0.50;;;0.50;;
16171;SDS011;8192;53.596;10.166;2022-07-01T14:24:31;0.50;;;0.50;;
16171;SDS011;8192;53.596;10.166;2022-07-01T14:26:59;0.73;;;0.37;;
16171;SDS011;8192;53.596;10.166;2022-07-01T14:32:06;0.20;;;0.20;;
16171;SDS011;8192;53.596;10.166;2022-07-01T14:34:34;1.10;;;0.63;;
16171;SDS011;8192;53.596;10.166;2022-07-01T14:37:01;2.73;;;0.50;;
16171;SDS011;8192;53.596;10.166;2022-07-01T14:39:28;0.70;;;0.60;;
16171;SDS011;8192;53.596;10.166;2022-07-01T14:41:56;0.50;;;0.50;;
16171;SDS011;8192;53.596;10.166;2022-07-01T14:44:24;0.47;;;0.47;;
16171;SDS011;8192;53.596;10.166;2022-07-01T14:46:51;6.47;;;4.37;;
16171;SDS011;8192;53.596;10.166;2022-07-01T14:49:19;7.57;;;4.20;;
16171;SDS011;8192;53.596;10.166;2022-07-01T14:51:46;5.27;;;4.00;;
16171;SDS011;8192;53.596;10.166;2022-07-01T14:54:13;7.57;;;4.10;;
16171;SDS011;8192;53.596;10.166;2022-07-01T14:56:40;7.60;;;4.23;;
16171;SDS011;8192;53.596;10.166;2022-07-01T14:59:08;12.33;;;5.37;;
16171;SDS011;8192;53.596;10.166;2022-07-01T15:01:36;7.77;;;4.40;;
16171;SDS011;8192;53.596;10.166;2022-07-01T15:04:05;6.17;;;4.37;;
16171;SDS011;8192;53.596;10.166;2022-07-01T15:06:33;5.50;;;4.10;;
16171;SDS011;8192;53.596;10.166;2022-07-01T15:09:00;9.23;;;4.93;;
16171;SDS011;8192;53.596;10.166;2022-07-01T15:11:27;7.13;;;4.40;;
16171;SDS011;8192;53.596;10.166;2022-07-01T15:13:54;6.77;;;4.87;;
16171;SDS011;8192;53.596;10.166;2022-07-01T15:16:21;6.90;;;4.97;;
16171;SDS011;8192;53.596;10.166;2022-07-01T15:18:51;6.47;;;4.67;;
16171;SDS011;8192;53.596;10.166;2022-07-01T15:21:18;9.10;;;4.60;;
16171;SDS011;8192;53.596;10.166;2022-07-01T15:23:46;6.50;;;5.00;;
16171;SDS011;8192;53.596;10.166;2022-07-01T15:26:13;8.97;;;4.60;;
16171;SDS011;8192;53.596;10.166;2022-07-01T15:28:39;7.33;;;5.13;;
16171;SDS011;8192;53.596;10.166;2022-07-01T15:31:07;9.20;;;5.70;;
16171;SDS011;8192;53.596;10.166;2022-07-01T15:33:34;9.80;;;5.30;;